createdAt,value
2019-05-18T00:00:34.897Z,17.93
2019-05-18T00:03:00.622Z,18.23
2019-05-18T00:05:26.360Z,18.10
2019-05-18T00:07:52.117Z,18.30
2019-05-18T00:10:17.888Z,19.37
2019-05-18T00:12:43.707Z,19.03
2019-05-18T00:15:10.738Z,19.73
2019-05-18T00:17:36.461Z,18.33
2019-05-18T00:20:03.396Z,19.20
2019-05-18T00:22:29.137Z,19.00
2019-05-18T00:24:54.865Z,18.83
2019-05-18T00:27:20.595Z,19.20
2019-05-18T00:29:46.329Z,19.30
2019-05-18T00:32:12.202Z,18.60
2019-05-18T00:34:37.963Z,19.70
2019-05-18T00:37:03.707Z,20.57
2019-05-18T00:39:29.454Z,19.77
2019-05-18T00:41:55.364Z,18.17
2019-05-18T00:44:21.100Z,19.33
2019-05-18T00:46:46.845Z,17.93
2019-05-18T00:49:12.594Z,18.00
2019-05-18T00:51:38.327Z,18.93
2019-05-18T00:54:04.059Z,19.93
2019-05-18T00:56:29.895Z,18.80
2019-05-18T00:58:55.652Z,19.63
2019-05-18T01:01:21.440Z,19.27
2019-05-18T01:03:47.160Z,19.17
2019-05-18T01:06:12.920Z,20.20
2019-05-18T01:08:38.713Z,19.87
2019-05-18T01:11:04.447Z,21.90
2019-05-18T01:13:30.194Z,18.20
2019-05-18T01:15:55.938Z,21.13
2019-05-18T01:18:21.665Z,20.27
2019-05-18T01:20:49.120Z,20.20
2019-05-18T01:23:14.854Z,19.87
2019-05-18T01:25:40.584Z,20.40
2019-05-18T01:28:06.313Z,21.53
2019-05-18T01:30:32.045Z,22.03
2019-05-18T01:32:57.774Z,21.33
2019-05-18T01:35:23.604Z,22.20
2019-05-18T01:37:49.485Z,22.10
2019-05-18T01:40:15.410Z,20.47
2019-05-18T01:42:41.144Z,20.03
2019-05-18T01:45:16.229Z,23.37
2019-05-18T01:47:34.737Z,22.63
2019-05-18T01:50:00.469Z,20.63
2019-05-18T01:52:26.192Z,20.60
2019-05-18T01:54:51.925Z,22.00
2019-05-18T01:57:17.668Z,23.40
2019-05-18T01:59:43.452Z,23.37
2019-05-18T02:02:09.250Z,21.87
2019-05-18T02:04:35.078Z,22.03
2019-05-18T02:07:00.850Z,23.07
2019-05-18T02:09:26.671Z,22.90
2019-05-18T02:11:52.434Z,22.03
2019-05-18T02:14:18.166Z,23.90
2019-05-18T02:16:43.889Z,22.37
2019-05-18T02:19:09.619Z,22.87
2019-05-18T02:21:35.358Z,20.27
2019-05-18T02:24:01.099Z,20.60
2019-05-18T02:26:26.832Z,19.20
2019-05-18T02:28:52.598Z,22.50
2019-05-18T02:31:18.326Z,21.50
2019-05-18T02:33:44.060Z,21.57
2019-05-18T02:36:09.812Z,20.83
2019-05-18T02:38:35.555Z,21.47
2019-05-18T02:41:01.287Z,19.37
2019-05-18T02:43:27.018Z,21.10
2019-05-18T02:45:52.745Z,20.57
2019-05-18T02:48:18.488Z,20.83
2019-05-18T02:50:44.234Z,20.97
2019-05-18T02:53:09.965Z,20.43
2019-05-18T02:55:35.719Z,20.43
2019-05-18T02:58:01.429Z,24.60
2019-05-18T03:00:27.166Z,21.97
2019-05-18T03:02:52.894Z,21.40
2019-05-18T03:05:18.625Z,21.93
2019-05-18T03:07:44.368Z,21.23
2019-05-18T03:10:10.190Z,23.20
2019-05-18T03:12:35.949Z,22.50
2019-05-18T03:15:01.886Z,21.93
2019-05-18T03:17:27.696Z,21.83
2019-05-18T03:19:53.500Z,22.03
2019-05-18T03:22:19.266Z,21.93
2019-05-18T03:24:44.981Z,20.67
2019-05-18T03:27:10.773Z,22.00
2019-05-18T03:29:36.493Z,21.63
2019-05-18T03:32:02.221Z,22.17
2019-05-18T03:34:27.999Z,20.70
2019-05-18T03:36:53.900Z,20.57
2019-05-18T03:39:19.829Z,20.63
2019-05-18T03:41:45.569Z,20.80
2019-05-18T03:44:11.317Z,20.67
2019-05-18T03:46:37.088Z,21.27
2019-05-18T03:49:02.982Z,22.00
2019-05-18T03:51:28.717Z,20.57
2019-05-18T03:53:54.457Z,20.43
2019-05-18T03:56:20.178Z,18.93
2019-05-18T03:58:45.917Z,19.43
2019-05-18T04:01:11.650Z,20.53
2019-05-18T04:03:37.586Z,18.43
2019-05-18T04:06:03.386Z,18.83
2019-05-18T04:08:29.355Z,19.27
2019-05-18T04:10:55.084Z,18.57
2019-05-18T04:13:20.855Z,20.17
2019-05-18T04:15:46.584Z,20.20
2019-05-18T04:18:12.349Z,21.10
2019-05-18T04:20:38.089Z,21.63
2019-05-18T04:23:03.812Z,19.77
2019-05-18T04:25:29.541Z,20.83
2019-05-18T04:27:55.289Z,20.00
2019-05-18T04:30:21.021Z,20.60
2019-05-18T04:32:46.741Z,21.17
2019-05-18T04:35:12.690Z,21.30
2019-05-18T04:37:38.418Z,22.53
2019-05-18T04:40:06.049Z,22.20
2019-05-18T04:42:31.790Z,21.27
2019-05-18T04:44:57.522Z,20.67
2019-05-18T04:47:23.245Z,22.03
2019-05-18T04:50:03.853Z,25.43
2019-05-18T04:52:16.618Z,26.07
2019-05-18T04:54:42.378Z,23.53
2019-05-18T04:57:08.198Z,23.33
2019-05-18T04:59:33.930Z,22.90
2019-05-18T05:01:59.776Z,26.97
2019-05-18T05:04:25.529Z,25.63
2019-05-18T05:06:51.277Z,27.63
2019-05-18T05:09:16.992Z,28.53
2019-05-18T05:11:42.717Z,28.00
2019-05-18T05:14:09.318Z,27.50
2019-05-18T05:16:35.099Z,27.30
2019-05-18T05:19:00.817Z,26.60
2019-05-18T05:21:26.589Z,26.57
2019-05-18T05:23:52.837Z,26.53
2019-05-18T05:26:18.587Z,28.70
2019-05-18T05:28:44.308Z,27.00
2019-05-18T05:31:10.024Z,27.67
2019-05-18T05:33:35.889Z,27.30
2019-05-18T05:36:01.620Z,27.10
2019-05-18T05:38:27.349Z,25.50
2019-05-18T05:40:53.094Z,28.83
2019-05-18T05:43:18.837Z,28.17
2019-05-18T05:45:44.577Z,28.30
2019-05-18T05:48:10.317Z,27.70
2019-05-18T05:50:36.772Z,25.97
2019-05-18T05:53:02.718Z,26.87
2019-05-18T05:55:28.476Z,27.03
2019-05-18T05:57:54.202Z,26.47
2019-05-18T06:00:20.013Z,26.07
2019-05-18T06:02:45.768Z,26.17
2019-05-18T06:05:11.790Z,26.60
2019-05-18T06:07:37.512Z,28.20
2019-05-18T06:10:04.274Z,26.27
2019-05-18T06:12:30.102Z,25.20
2019-05-18T06:14:55.865Z,26.20
2019-05-18T06:17:21.640Z,26.20
2019-05-18T06:19:47.360Z,26.53
2019-05-18T06:22:13.082Z,25.47
2019-05-18T06:24:38.821Z,26.20
2019-05-18T06:27:04.580Z,26.20
2019-05-18T06:29:30.309Z,25.50
2019-05-18T06:31:56.036Z,26.03
2019-05-18T06:34:21.776Z,25.87
2019-05-18T06:36:47.534Z,26.03
2019-05-18T06:39:13.384Z,25.43
2019-05-18T06:41:39.188Z,27.10
2019-05-18T06:44:04.941Z,26.70
2019-05-18T06:46:30.681Z,24.87
2019-05-18T06:48:56.416Z,25.23
2019-05-18T06:51:22.201Z,26.30
2019-05-18T06:53:47.931Z,25.73
2019-05-18T06:56:14.181Z,25.67
2019-05-18T06:58:40.342Z,25.93
2019-05-18T07:01:06.049Z,25.70
2019-05-18T07:03:31.821Z,25.77
2019-05-18T07:05:57.669Z,25.27
2019-05-18T07:08:23.405Z,25.37
2019-05-18T07:10:49.161Z,24.60
2019-05-18T07:13:14.894Z,24.00
2019-05-18T07:15:40.635Z,25.55
2019-05-18T07:18:06.394Z,26.77
2019-05-18T07:20:32.162Z,26.48
2019-05-18T07:22:57.900Z,25.17
2019-05-18T07:25:23.631Z,24.25
2019-05-18T07:27:49.353Z,25.88
2019-05-18T07:30:16.537Z,24.98
2019-05-18T07:32:42.268Z,29.48
2019-05-18T07:35:08.405Z,26.93
2019-05-18T07:37:34.540Z,26.00
2019-05-18T07:40:00.390Z,27.77
2019-05-18T07:42:26.112Z,27.65
2019-05-18T07:44:51.852Z,25.48
2019-05-18T07:47:17.610Z,28.38
2019-05-18T07:49:43.337Z,26.50
2019-05-18T07:52:09.081Z,25.82
2019-05-18T07:54:34.816Z,27.07
2019-05-18T07:57:00.551Z,26.33
2019-05-18T07:59:26.296Z,27.25
2019-05-18T08:01:52.064Z,25.35
2019-05-18T08:04:17.903Z,26.65
2019-05-18T08:06:43.741Z,26.62
2019-05-18T08:09:09.518Z,25.80
2019-05-18T08:11:35.265Z,25.05
2019-05-18T08:14:01.001Z,26.17
2019-05-18T08:16:27.589Z,27.75
2019-05-18T08:18:53.329Z,26.48
2019-05-18T08:21:19.113Z,25.15
2019-05-18T08:23:44.849Z,25.27
2019-05-18T08:26:10.569Z,25.85
2019-05-18T08:28:36.292Z,27.45
2019-05-18T08:31:02.047Z,26.37
2019-05-18T08:33:27.761Z,25.10
2019-05-18T08:35:53.493Z,26.42
2019-05-18T08:38:19.227Z,26.10
2019-05-18T08:40:44.954Z,26.40
2019-05-18T08:43:10.701Z,25.48
2019-05-18T08:45:36.428Z,25.00
2019-05-18T08:48:02.171Z,25.20
2019-05-18T08:50:27.900Z,26.42
2019-05-18T08:52:53.629Z,25.68
2019-05-18T08:55:19.365Z,26.07
2019-05-18T08:57:45.089Z,25.68
2019-05-18T09:00:10.918Z,25.37
2019-05-18T09:02:37.049Z,25.02
2019-05-18T09:05:04.999Z,25.45
2019-05-18T09:07:31.005Z,24.65
2019-05-18T09:09:56.745Z,25.70
2019-05-18T09:12:22.484Z,22.60
2019-05-18T09:14:48.209Z,23.80
2019-05-18T09:17:14.132Z,23.87
2019-05-18T09:19:39.896Z,23.98
2019-05-18T09:22:05.637Z,24.25
2019-05-18T09:24:31.359Z,23.12
2019-05-18T09:26:57.138Z,23.75
2019-05-18T09:29:22.875Z,24.30
2019-05-18T09:31:48.640Z,23.27
2019-05-18T09:34:14.364Z,24.50
2019-05-18T09:36:40.104Z,23.27
2019-05-18T09:39:06.003Z,22.22
2019-05-18T09:41:32.191Z,23.07
2019-05-18T09:43:58.128Z,22.93
2019-05-18T09:46:23.875Z,21.55
2019-05-18T09:48:49.597Z,22.30
2019-05-18T09:51:15.365Z,21.50
2019-05-18T09:53:51.064Z,20.90
2019-05-18T09:56:08.794Z,22.13
2019-05-18T09:58:34.686Z,20.25
2019-05-18T10:01:00.481Z,20.35
2019-05-18T10:03:26.322Z,20.72
2019-05-18T10:05:52.160Z,21.57
2019-05-18T10:08:17.922Z,19.77
2019-05-18T10:10:43.909Z,21.42
2019-05-18T10:13:09.649Z,21.25
2019-05-18T10:15:35.390Z,20.12
2019-05-18T10:18:01.117Z,18.65
2019-05-18T10:20:26.881Z,18.73
2019-05-18T10:23:04.107Z,19.10
2019-05-18T10:25:20.271Z,18.90
2019-05-18T10:27:46.010Z,19.85
2019-05-18T10:30:12.152Z,19.23
2019-05-18T10:32:37.894Z,21.73
2019-05-18T10:35:04.949Z,22.67
2019-05-18T10:37:30.752Z,22.55
2019-05-18T10:39:56.514Z,22.50
2019-05-18T10:42:22.257Z,22.52
2019-05-18T10:44:47.987Z,22.53
2019-05-18T10:47:13.725Z,21.45
2019-05-18T10:49:39.465Z,20.97
2019-05-18T10:52:05.194Z,22.10
2019-05-18T10:54:31.098Z,21.65
2019-05-18T10:56:56.939Z,21.02
2019-05-18T10:59:22.670Z,20.72
2019-05-18T11:01:48.415Z,20.20
2019-05-18T11:04:14.317Z,20.65
2019-05-18T11:06:40.137Z,20.27
2019-05-18T11:09:05.981Z,20.95
2019-05-18T11:11:31.783Z,20.35
2019-05-18T11:13:57.511Z,20.32
2019-05-18T11:16:23.254Z,20.45
2019-05-18T11:18:48.981Z,19.73
2019-05-18T11:21:14.745Z,19.73
2019-05-18T11:23:43.678Z,18.05
2019-05-18T11:26:08.117Z,20.10
2019-05-18T11:28:33.857Z,19.57
2019-05-18T11:30:59.579Z,19.65
2019-05-18T11:33:25.301Z,19.65
2019-05-18T11:35:51.044Z,19.00
2019-05-18T11:38:16.786Z,19.12
2019-05-18T11:40:42.521Z,20.23
2019-05-18T11:43:08.543Z,18.48
2019-05-18T11:45:34.443Z,17.87
2019-05-18T11:48:00.182Z,18.73
2019-05-18T11:50:25.904Z,18.95
2019-05-18T11:52:51.791Z,17.75
2019-05-18T11:55:17.895Z,15.75
2019-05-18T11:57:43.614Z,16.40
2019-05-18T12:00:10.962Z,17.02
2019-05-18T12:02:36.700Z,16.20
2019-05-18T12:05:03.579Z,16.52
2019-05-18T12:07:29.510Z,16.35
2019-05-18T12:09:55.235Z,15.00
2019-05-18T12:12:21.010Z,15.20
2019-05-18T12:14:46.924Z,14.80
2019-05-18T12:17:12.652Z,13.28
2019-05-18T12:19:38.393Z,13.50
2019-05-18T12:22:05.736Z,12.47
2019-05-18T12:24:31.520Z,13.90
2019-05-18T12:26:57.335Z,15.03
2019-05-18T12:29:23.063Z,14.58
2019-05-18T12:31:48.799Z,14.38
2019-05-18T12:34:14.538Z,13.43
2019-05-18T12:36:40.269Z,13.30
2019-05-18T12:39:07.943Z,13.18
2019-05-18T12:41:33.760Z,12.25
2019-05-18T12:43:59.496Z,11.63
2019-05-18T12:46:25.344Z,13.35
2019-05-18T12:48:51.083Z,12.23
2019-05-18T12:51:16.863Z,12.63
2019-05-18T12:53:43.417Z,12.68
2019-05-18T12:56:09.164Z,12.25
2019-05-18T12:58:37.599Z,11.30
2019-05-18T13:01:02.558Z,11.55
2019-05-18T13:03:28.296Z,11.88
2019-05-18T13:05:54.027Z,11.83
2019-05-18T13:08:19.775Z,10.63
2019-05-18T13:10:45.584Z,10.70
2019-05-18T13:13:11.330Z,10.55
2019-05-18T13:15:37.075Z,10.20
2019-05-18T13:18:02.801Z,9.38
2019-05-18T13:20:28.551Z,10.28
2019-05-18T13:22:54.299Z,15.68
2019-05-18T13:25:20.024Z,14.75
2019-05-18T13:27:45.774Z,16.40
2019-05-18T13:30:11.981Z,15.15
2019-05-18T13:32:37.964Z,14.65
2019-05-18T13:35:04.397Z,16.30
2019-05-18T13:37:30.150Z,14.95
2019-05-18T13:39:55.876Z,15.93
2019-05-18T13:42:21.613Z,16.90
2019-05-18T13:44:47.340Z,15.53
2019-05-18T13:47:13.076Z,16.85
2019-05-18T13:49:38.819Z,14.78
2019-05-18T13:52:04.558Z,14.70
2019-05-18T13:54:30.282Z,14.87
2019-05-18T13:56:56.013Z,14.07
2019-05-18T13:59:21.750Z,14.68
2019-05-18T14:01:47.510Z,12.73
2019-05-18T14:04:13.246Z,15.05
2019-05-18T14:06:38.965Z,16.00
2019-05-18T14:09:04.989Z,15.95
2019-05-18T14:11:30.921Z,17.02
2019-05-18T14:13:56.676Z,15.45
2019-05-18T14:16:22.396Z,16.67
2019-05-18T14:18:48.124Z,16.50
2019-05-18T14:21:13.854Z,17.48
2019-05-18T14:23:39.608Z,15.80
2019-05-18T14:26:05.371Z,16.30
2019-05-18T14:28:31.091Z,16.52
2019-05-18T14:30:56.833Z,18.17
2019-05-18T14:33:22.644Z,17.98
2019-05-18T14:35:48.428Z,18.40
2019-05-18T14:38:14.199Z,17.07
2019-05-18T14:40:40.006Z,19.95
2019-05-18T14:43:05.780Z,17.32
2019-05-18T14:45:31.582Z,18.30
2019-05-18T14:47:57.361Z,18.12
2019-05-18T14:50:23.413Z,18.10
2019-05-18T14:52:49.183Z,18.87
2019-05-18T14:55:15.731Z,15.88
2019-05-18T14:57:41.723Z,16.23
2019-05-18T15:00:09.777Z,16.87
2019-05-18T15:02:35.823Z,16.60
2019-05-18T15:05:07.429Z,15.80
2019-05-18T15:11:10.736Z,15.75
2019-05-18T15:13:36.485Z,15.58
2019-05-18T15:16:02.215Z,13.50
2019-05-18T15:18:27.953Z,15.28
2019-05-18T15:20:53.683Z,14.20
2019-05-18T15:23:19.393Z,13.95
2019-05-18T15:25:50.647Z,14.93
2019-05-18T15:28:12.889Z,14.85
2019-05-18T15:30:38.606Z,15.95
2019-05-18T15:33:04.389Z,17.48
2019-05-18T15:35:30.201Z,17.35
2019-05-18T15:37:55.939Z,16.65
2019-05-18T15:40:21.669Z,17.50
2019-05-18T15:42:47.402Z,15.75
2019-05-18T15:45:13.376Z,16.12
2019-05-18T15:47:39.218Z,16.00
2019-05-18T15:50:06.037Z,16.55
2019-05-18T15:52:31.764Z,16.85
2019-05-18T15:54:57.492Z,18.45
2019-05-18T15:57:23.263Z,16.77
2019-05-18T15:59:49.083Z,15.90
2019-05-18T16:02:14.886Z,14.85
2019-05-18T16:04:40.704Z,16.00
2019-05-18T16:07:06.437Z,15.88
2019-05-18T16:09:32.344Z,14.75
2019-05-18T16:11:58.272Z,15.95
2019-05-18T16:14:24.013Z,14.90
2019-05-18T16:16:54.687Z,15.58
2019-05-18T16:19:17.421Z,15.85
2019-05-18T16:21:43.161Z,14.68
2019-05-18T16:24:08.928Z,14.50
2019-05-18T16:26:35.491Z,15.78
2019-05-18T16:29:01.539Z,15.70
2019-05-18T16:31:27.341Z,16.70
2019-05-18T16:33:53.077Z,14.53
2019-05-18T16:36:18.854Z,14.98
2019-05-18T16:38:44.589Z,15.30
2019-05-18T16:41:10.329Z,15.85
2019-05-18T16:43:36.071Z,14.73
2019-05-18T16:46:01.864Z,15.55
2019-05-18T16:48:27.725Z,14.50
2019-05-18T16:50:55.557Z,16.62
2019-05-18T16:53:21.290Z,15.08
2019-05-18T16:55:47.039Z,15.18
2019-05-18T16:58:12.773Z,15.90
2019-05-18T17:00:38.503Z,16.37
2019-05-18T17:03:04.232Z,16.65
2019-05-18T17:05:29.963Z,15.70
2019-05-18T17:07:55.680Z,16.12
2019-05-18T17:10:21.521Z,15.45
2019-05-18T17:12:47.273Z,16.55
2019-05-18T17:15:13.302Z,16.52
2019-05-18T17:17:39.035Z,17.32
2019-05-18T17:22:41.318Z,17.23
2019-05-18T17:25:07.821Z,17.40
2019-05-18T17:27:33.725Z,17.90
2019-05-18T17:29:59.598Z,17.15
2019-05-18T17:32:25.450Z,16.95
2019-05-18T17:34:51.343Z,16.50
2019-05-18T17:37:17.302Z,16.55
2019-05-18T17:39:43.150Z,18.07
2019-05-18T17:42:10.117Z,26.75
2019-05-18T17:44:35.980Z,18.82
2019-05-18T17:47:01.841Z,18.50
2019-05-18T17:49:27.691Z,17.12
2019-05-18T17:51:53.558Z,17.45
2019-05-18T17:54:19.463Z,16.70
2019-05-18T17:56:45.305Z,16.50
2019-05-18T17:59:11.151Z,16.57
2019-05-18T18:01:39.216Z,16.00
2019-05-18T18:04:05.090Z,14.85
2019-05-18T18:06:30.947Z,16.07
2019-05-18T18:08:56.801Z,15.00
2019-05-18T18:11:23.271Z,17.57
2019-05-18T18:13:49.135Z,19.30
2019-05-18T18:16:15.018Z,20.35
2019-05-18T18:18:40.886Z,20.40
2019-05-18T18:21:06.742Z,21.15
2019-05-18T18:23:32.591Z,22.25
2019-05-18T18:25:58.477Z,23.05
2019-05-18T18:28:24.423Z,22.90
2019-05-18T18:30:50.645Z,22.55
2019-05-18T18:33:16.525Z,22.00
2019-05-18T18:35:42.378Z,22.90
2019-05-18T18:38:08.232Z,22.75
2019-05-18T18:40:34.080Z,22.95
2019-05-18T18:43:00.035Z,23.60
2019-05-18T18:45:25.923Z,21.55
2019-05-18T18:47:51.760Z,21.10
2019-05-18T18:50:17.846Z,21.05
2019-05-18T18:52:43.707Z,19.85
2019-05-18T18:55:09.979Z,20.50
2019-05-18T18:57:41.342Z,19.87
2019-05-18T19:00:05.964Z,19.60
2019-05-18T19:02:31.816Z,19.10
2019-05-18T19:04:57.665Z,19.80
2019-05-18T19:07:23.525Z,20.40
2019-05-18T19:09:49.386Z,20.88
2019-05-18T19:12:15.502Z,19.77
2019-05-18T19:14:41.408Z,19.17
2019-05-18T19:17:07.459Z,21.55
2019-05-18T19:19:33.322Z,21.17
2019-05-18T19:21:59.176Z,23.12
2019-05-18T19:24:25.186Z,23.77
2019-05-18T19:26:51.218Z,24.72
2019-05-18T19:29:17.061Z,24.47
2019-05-18T19:31:42.934Z,21.55
2019-05-18T19:34:09.122Z,19.12
2019-05-18T19:36:35.003Z,19.40
2019-05-18T19:39:01.002Z,20.68
2019-05-18T19:41:27.613Z,21.37
2019-05-18T19:43:53.482Z,20.57
2019-05-18T19:46:19.527Z,20.10
2019-05-18T19:48:45.390Z,20.75
2019-05-18T19:51:11.266Z,23.12
2019-05-18T19:53:37.114Z,25.90
2019-05-18T19:56:02.980Z,27.52
2019-05-18T19:58:28.831Z,28.52
2019-05-18T20:00:54.688Z,28.40
2019-05-18T20:03:20.594Z,32.58
2019-05-18T20:05:46.463Z,33.10
2019-05-18T20:08:12.330Z,34.38
2019-05-18T20:10:38.189Z,33.15
2019-05-18T20:13:04.157Z,35.35
2019-05-18T20:15:30.038Z,35.38
2019-05-18T20:17:55.891Z,34.00
2019-05-18T20:20:21.854Z,35.33
2019-05-18T20:22:47.734Z,35.80
2019-05-18T20:25:13.838Z,35.70
2019-05-18T20:27:39.733Z,36.25
2019-05-18T20:30:06.406Z,34.63
2019-05-18T20:32:34.215Z,34.73
2019-05-18T20:35:00.031Z,36.10
2019-05-18T20:37:25.896Z,35.88
2019-05-18T20:39:51.777Z,36.05
2019-05-18T20:42:17.656Z,36.80
2019-05-18T20:44:43.543Z,36.40
2019-05-18T20:47:09.432Z,36.70
2019-05-18T20:49:35.345Z,36.83
2019-05-18T20:52:01.236Z,37.10
2019-05-18T20:54:27.093Z,37.45
2019-05-18T20:56:52.950Z,35.40
2019-05-18T20:59:18.812Z,38.48
2019-05-18T21:01:44.691Z,37.20
2019-05-18T21:04:10.609Z,38.15
2019-05-18T21:06:36.840Z,37.63
2019-05-18T21:09:04.406Z,37.15
2019-05-18T21:11:30.281Z,37.35
2019-05-18T21:13:57.823Z,36.65
2019-05-18T21:16:23.937Z,37.88
2019-05-18T21:18:49.960Z,37.08
2019-05-18T21:21:15.819Z,36.80
2019-05-18T21:23:41.685Z,38.20
2019-05-18T21:26:07.634Z,37.28
2019-05-18T21:28:34.464Z,36.73
2019-05-18T21:31:00.327Z,38.70
2019-05-18T21:33:26.192Z,36.97
2019-05-18T21:35:52.066Z,36.40
2019-05-18T21:38:17.923Z,34.13
2019-05-18T21:40:43.789Z,38.37
2019-05-18T21:43:09.650Z,40.23
2019-05-18T21:45:35.503Z,38.07
2019-05-18T21:48:01.353Z,37.48
2019-05-18T21:50:27.212Z,38.92
2019-05-18T21:52:53.277Z,38.00
2019-05-18T21:55:19.125Z,40.47
2019-05-18T21:57:45.091Z,39.37
2019-05-18T22:00:11.203Z,39.67
2019-05-18T22:02:37.314Z,39.40
2019-05-18T22:05:04.124Z,39.60
2019-05-18T22:07:29.995Z,39.13
2019-05-18T22:09:55.849Z,39.80
2019-05-18T22:12:21.746Z,37.67
2019-05-18T22:14:48.857Z,38.77
2019-05-18T22:17:15.682Z,39.03
2019-05-18T22:19:41.564Z,37.33
2019-05-18T22:22:07.443Z,37.90
2019-05-18T22:24:33.265Z,39.37
2019-05-18T22:26:59.129Z,37.77
2019-05-18T22:29:25.014Z,36.28
2019-05-18T22:31:50.883Z,36.20
2019-05-18T22:34:16.740Z,36.70
2019-05-18T22:36:42.615Z,38.77
2019-05-18T22:39:08.487Z,36.53
2019-05-18T22:41:34.850Z,38.03
2019-05-18T22:44:00.908Z,36.77
2019-05-18T22:46:26.842Z,35.50
2019-05-18T22:48:52.710Z,38.10
2019-05-18T22:51:18.569Z,38.00
2019-05-18T22:53:46.597Z,38.50
2019-05-18T22:56:12.205Z,36.87
2019-05-18T22:58:38.089Z,37.60
2019-05-18T23:01:04.059Z,38.20
2019-05-18T23:03:29.921Z,37.57
2019-05-18T23:05:55.788Z,36.23
2019-05-18T23:08:21.641Z,35.50
2019-05-18T23:10:47.529Z,38.50
2019-05-18T23:13:13.526Z,37.73
2019-05-18T23:15:39.480Z,36.87
2019-05-18T23:18:06.139Z,36.50
2019-05-18T23:20:32.028Z,37.93
2019-05-18T23:22:57.881Z,38.00
2019-05-18T23:25:23.772Z,38.73
2019-05-18T23:27:49.633Z,36.80
2019-05-18T23:30:16.543Z,36.57
2019-05-18T23:32:42.383Z,37.47
2019-05-18T23:35:08.453Z,36.77
2019-05-18T23:37:34.348Z,36.70
2019-05-18T23:40:00.246Z,38.77
2019-05-18T23:42:26.073Z,38.37
2019-05-18T23:44:51.937Z,38.03
2019-05-18T23:47:17.809Z,39.27
2019-05-18T23:49:43.663Z,36.50
2019-05-18T23:52:09.586Z,38.07
2019-05-18T23:54:35.438Z,36.20
2019-05-18T23:57:01.291Z,36.37
2019-05-18T23:59:27.161Z,37.23
